This is the latest recevied weather packets stored in our database for station/object KN6KS. If no packets are shown the sender has not sent any weather packets the latest 10 day(s).
| Time | Temp. | Humidity | Pressure | Rain* | Wind** | Luminosity | Snow |
|---|---|---|---|---|---|---|---|
| 1777477848 | 16.67° C | 42% | 1017.3 hPa | 0 mm | - | 414 W/m² | - |
| 1777477543 | 16.11° C | 44% | 1017.4 hPa | 0 mm | - | 402 W/m² | - |
| 1777477240 | 17.22° C | 41% | 1017.3 hPa | 0 mm | - | 376 W/m² | - |
| 1777476936 | 16.67° C | 43% | 1017.1 hPa | 0 mm | - | 75 W/m² | - |
| 1777476635 | 16.11° C | 45% | 1017 hPa | 0 mm | - | 328 W/m² | - |
| 1777476331 | 16.67° C | 45% | 1017.6 hPa | 0 mm | - | 311 W/m² | - |
| 1777476026 | 16.11° C | 45% | 1017.2 hPa | 0 mm | - | 281 W/m² | - |
| 1777475722 | 15.56° C | 47% | 1017.2 hPa | 0 mm | - | 271 W/m² | - |
| 1777475419 | 15.56° C | 49% | 1017.3 hPa | 0 mm | - | 61 W/m² | - |
| 1777475114 | 15.56° C | 49% | 1017.4 hPa | 0 mm | - | 225 W/m² | - |
| 1777474812 | 15.56° C | 49% | 1017.3 hPa | 0 mm | - | 58 W/m² | - |
| 1777474507 | 15.56° C | 48% | 1017.3 hPa | 0 mm | - | 177 W/m² | - |
| 1777474204 | 15° C | 49% | 1017.5 hPa | 0 mm | - | 56 W/m² | - |
| 1777473901 | 15° C | 50% | 1017.5 hPa | 0 mm | - | 55 W/m² | - |
| 1777473599 | 15° C | 50% | 1017.4 hPa | 0 mm | - | 57 W/m² | - |
| 1777473295 | 15° C | 51% | 1017.3 hPa | 0 mm | - | 58 W/m² | - |
| 1777472990 | 13.33° C | 54% | 1017.3 hPa | 0 mm | - | 119 W/m² | - |
| 1777472687 | 12.78° C | 56% | 1017.4 hPa | 0 mm | - | 115 W/m² | - |
| 1777472383 | 12.22° C | 55% | 1017.3 hPa | 0 mm | - | 72 W/m² | - |
| 1777472082 | 11.67° C | 56% | 1017.3 hPa | 0 mm | - | 58 W/m² | - |
| 1777471776 | 11.67° C | 59% | 1017.4 hPa | 0 mm | - | 54 W/m² | - |
| 1777471473 | 11.67° C | 59% | 1017.2 hPa | 0 mm | - | 49 W/m² | - |
| 1777471170 | 10.56° C | 59% | 1017.4 hPa | 0 mm | - | 45 W/m² | - |
| 1777470867 | 10.56° C | 61% | 1017.6 hPa | 0 mm | - | 40 W/m² | - |
| 1777470564 | 10° C | 63% | 1017.2 hPa | 0 mm | - | 35 W/m² | - |
* Rain latest hour (hover to see other rain measurements)
** Current wind speed in m/s (hover to see current wind gust speed)